createdAt,value
2022-09-28T00:00:15.999Z,72.70
2022-09-28T00:02:44.173Z,72.80
2022-09-28T00:10:12.457Z,72.70
2022-09-28T00:17:37.705Z,72.80
2022-09-28T00:25:02.761Z,72.60
2022-09-28T00:27:32.268Z,72.80
2022-09-28T00:30:00.314Z,72.80
2022-09-28T00:32:28.658Z,72.70
2022-09-28T00:34:56.691Z,72.80
2022-09-28T00:37:24.719Z,72.80
2022-09-28T00:39:52.734Z,72.70
2022-09-28T00:42:22.387Z,72.60
2022-09-28T00:44:57.005Z,72.60
2022-09-28T00:47:45.507Z,72.70
2022-09-28T00:50:18.259Z,72.70
2022-09-28T00:52:50.376Z,72.60
2022-09-28T00:55:21.144Z,72.60
2022-09-28T00:57:51.805Z,72.50
2022-09-28T01:00:22.015Z,72.60
2022-09-28T01:02:50.163Z,72.70
2022-09-28T01:05:18.202Z,72.70
2022-09-28T01:07:46.241Z,72.60
2022-09-28T01:10:14.329Z,72.70
2022-09-28T01:12:42.311Z,72.70
2022-09-28T01:15:10.801Z,72.70
2022-09-28T01:17:49.321Z,72.80
2022-09-28T01:20:43.418Z,72.70
2022-09-28T01:23:33.364Z,73.00
2022-09-28T01:26:17.424Z,72.70
2022-09-28T01:28:45.465Z,72.70
2022-09-28T01:31:14.133Z,72.80
2022-09-28T01:33:43.538Z,72.60
2022-09-28T01:36:12.966Z,72.80
2022-09-28T01:38:42.962Z,72.70
2022-09-28T01:41:12.328Z,72.60
2022-09-28T01:43:41.491Z,72.70
2022-09-28T01:46:12.912Z,72.60
2022-09-28T01:48:43.484Z,72.50
2022-09-28T01:51:14.695Z,72.50
2022-09-28T01:53:44.251Z,72.60
2022-09-28T01:56:14.410Z,72.70
2022-09-28T01:58:44.735Z,72.70
2022-09-28T02:01:15.192Z,72.70
2022-09-28T02:03:45.656Z,72.50
2022-09-28T02:06:16.033Z,72.70
2022-09-28T02:08:51.894Z,72.60
2022-09-28T02:11:21.867Z,72.60
2022-09-28T02:13:50.846Z,72.60
2022-09-28T02:16:21.406Z,72.60
2022-09-28T02:18:49.488Z,72.70
2022-09-28T02:21:18.774Z,72.60
2022-09-28T02:23:50.027Z,72.70
2022-09-28T02:26:18.021Z,72.70
2022-09-28T02:28:47.374Z,72.60
2022-09-28T02:31:15.390Z,72.70
2022-09-28T02:33:44.638Z,72.70
2022-09-28T02:36:12.689Z,72.60
2022-09-28T02:38:40.702Z,72.60
2022-09-28T02:41:14.807Z,72.50
2022-09-28T02:43:50.942Z,72.60
2022-09-28T02:46:24.768Z,72.70
2022-09-28T02:49:17.375Z,72.60
2022-09-28T02:51:52.391Z,72.50
2022-09-28T02:54:37.651Z,72.70
2022-09-28T02:57:13.861Z,72.70
2022-09-28T02:59:47.788Z,72.50
2022-09-28T03:02:21.684Z,72.60
2022-09-28T03:04:53.877Z,72.50
2022-09-28T03:07:24.223Z,72.60
2022-09-28T03:09:55.432Z,72.60
2022-09-28T03:12:23.598Z,72.50
2022-09-28T03:15:06.642Z,72.40
2022-09-28T03:17:34.663Z,72.40
2022-09-28T03:20:03.489Z,72.50
2022-09-28T03:22:31.492Z,72.50
2022-09-28T03:24:59.540Z,72.50
2022-09-28T03:27:27.583Z,72.40
2022-09-28T03:29:56.961Z,72.40
2022-09-28T03:32:24.966Z,72.50
2022-09-28T03:34:55.915Z,72.40
2022-09-28T03:37:23.993Z,72.50
2022-09-28T03:39:52.010Z,72.50
2022-09-28T03:42:20.020Z,72.50
2022-09-28T03:44:48.023Z,72.60
2022-09-28T03:47:18.267Z,72.40
2022-09-28T03:49:46.700Z,72.50
2022-09-28T03:52:19.615Z,72.40
2022-09-28T03:54:49.339Z,72.40
2022-09-28T03:57:17.567Z,72.30
2022-09-28T03:59:45.590Z,72.20
2022-09-28T04:02:13.654Z,72.30
2022-09-28T04:04:43.060Z,72.30
2022-09-28T04:07:11.069Z,72.30
2022-09-28T04:09:39.070Z,72.40
2022-09-28T04:12:07.793Z,72.40
2022-09-28T04:14:35.796Z,72.30
2022-09-28T04:17:04.773Z,72.30
2022-09-28T04:19:32.806Z,72.40
2022-09-28T04:22:02.386Z,72.40
2022-09-28T04:24:30.376Z,72.60
2022-09-28T04:27:18.392Z,72.50
2022-09-28T04:29:45.390Z,72.30
2022-09-28T04:32:13.405Z,72.40
2022-09-28T04:34:44.181Z,72.40
2022-09-28T04:37:15.036Z,72.30
2022-09-28T04:39:46.276Z,72.40
2022-09-28T04:42:16.349Z,72.30
2022-09-28T04:44:49.645Z,72.40
2022-09-28T04:47:17.671Z,72.30
2022-09-28T04:49:49.659Z,72.40
2022-09-28T04:52:19.021Z,72.30
2022-09-28T04:54:47.011Z,72.30
2022-09-28T04:57:15.033Z,72.30
2022-09-28T04:59:43.048Z,72.20
2022-09-28T05:02:12.068Z,72.30
2022-09-28T05:04:40.180Z,72.30
2022-09-28T05:07:08.185Z,72.20
2022-09-28T05:09:38.600Z,72.30
2022-09-28T05:12:06.874Z,72.40
2022-09-28T05:14:34.893Z,72.20
2022-09-28T05:19:31.389Z,72.20
2022-09-28T05:22:00.550Z,72.40
2022-09-28T05:24:28.554Z,72.30
2022-09-28T05:26:57.919Z,72.20
2022-09-28T05:29:32.619Z,72.20
2022-09-28T05:32:02.343Z,72.20
2022-09-28T05:34:30.423Z,72.30
2022-09-28T05:36:58.435Z,72.20
2022-09-28T05:39:26.469Z,72.20
2022-09-28T05:41:54.478Z,72.30
2022-09-28T05:44:24.638Z,72.20
2022-09-28T05:46:54.146Z,72.10
2022-09-28T05:49:22.341Z,72.30
2022-09-28T05:51:50.352Z,72.20
2022-09-28T05:54:18.486Z,72.20
2022-09-28T05:56:46.661Z,72.20
2022-09-28T05:59:14.656Z,72.20
2022-09-28T06:01:44.063Z,72.20
2022-09-28T06:04:12.141Z,72.20
2022-09-28T06:06:40.345Z,72.40
2022-09-28T06:09:08.445Z,72.20
2022-09-28T06:11:36.482Z,72.20
2022-09-28T06:14:05.210Z,72.20
2022-09-28T06:16:35.025Z,72.20
2022-09-28T06:19:04.491Z,72.20
2022-09-28T06:21:32.518Z,72.20
2022-09-28T06:24:00.585Z,72.40
2022-09-28T06:26:28.595Z,72.20
2022-09-28T06:28:56.623Z,72.30
2022-09-28T06:31:25.017Z,72.20
2022-09-28T06:33:53.046Z,72.20
2022-09-28T06:36:22.437Z,72.30
2022-09-28T06:38:50.448Z,72.20
2022-09-28T06:41:18.457Z,72.20
2022-09-28T06:46:15.339Z,72.30
2022-09-28T06:48:44.268Z,72.30
2022-09-28T06:51:12.302Z,72.40
2022-09-28T06:56:10.396Z,72.30
2022-09-28T07:01:06.990Z,72.30
2022-09-28T07:03:35.031Z,72.20
2022-09-28T07:06:03.642Z,72.20
2022-09-28T07:08:31.675Z,72.20
2022-09-28T07:11:01.424Z,72.30
2022-09-28T07:13:49.055Z,72.20
2022-09-28T07:16:19.622Z,72.20
2022-09-28T07:18:49.717Z,72.40
2022-09-28T07:21:27.450Z,72.40
2022-09-28T07:23:57.511Z,72.20
2022-09-28T07:26:26.982Z,72.30
2022-09-28T07:28:55.971Z,72.40
2022-09-28T07:31:26.323Z,72.30
2022-09-28T07:33:56.495Z,72.40
2022-09-28T07:36:24.540Z,72.30
2022-09-28T07:38:52.563Z,72.20
2022-09-28T07:41:32.184Z,72.40
2022-09-28T07:44:06.066Z,72.30
2022-09-28T07:46:34.487Z,72.30
2022-09-28T07:49:08.318Z,72.20
2022-09-28T07:51:44.839Z,72.30
2022-09-28T07:54:12.878Z,72.30
2022-09-28T07:56:40.873Z,72.30
2022-09-28T07:59:10.408Z,72.20
2022-09-28T08:01:43.934Z,72.50
2022-09-28T08:04:12.146Z,72.30
2022-09-28T08:06:40.588Z,72.30
2022-09-28T08:09:08.643Z,72.30
2022-09-28T08:11:36.676Z,72.20
2022-09-28T08:14:04.723Z,72.50
2022-09-28T08:16:34.181Z,72.20
2022-09-28T08:19:02.289Z,72.30
2022-09-28T08:21:47.518Z,72.20
2022-09-28T08:24:16.128Z,72.10
2022-09-28T08:26:44.188Z,72.40
2022-09-28T08:29:12.213Z,72.30
2022-09-28T08:31:41.602Z,72.40
2022-09-28T08:34:09.763Z,72.40
2022-09-28T08:36:38.933Z,72.30
2022-09-28T08:39:07.114Z,72.40
2022-09-28T08:41:41.585Z,72.60
2022-09-28T08:44:17.271Z,72.50
2022-09-28T08:46:47.818Z,72.40
2022-09-28T08:49:30.741Z,72.50
2022-09-28T08:52:00.710Z,72.40
2022-09-28T08:54:32.872Z,72.50
2022-09-28T08:57:02.507Z,72.60
2022-09-28T08:59:32.856Z,72.60
2022-09-28T09:02:04.787Z,72.60
2022-09-28T09:04:33.249Z,72.70
2022-09-28T09:07:12.336Z,72.50
2022-09-28T09:09:47.252Z,72.50
2022-09-28T09:12:19.266Z,72.60
2022-09-28T09:15:21.555Z,72.70
2022-09-28T09:17:58.269Z,72.60
2022-09-28T09:20:31.092Z,72.50
2022-09-28T09:23:00.568Z,72.60
2022-09-28T09:25:29.653Z,72.70
2022-09-28T09:28:08.653Z,72.50
2022-09-28T09:30:42.191Z,72.60
2022-09-28T09:33:27.587Z,72.80
2022-09-28T09:36:02.154Z,72.40
2022-09-28T09:38:41.879Z,72.40
2022-09-28T09:41:17.719Z,72.40
2022-09-28T09:43:59.013Z,72.50
2022-09-28T09:46:35.811Z,72.50
2022-09-28T09:49:08.083Z,72.40
2022-09-28T09:51:40.064Z,72.50
2022-09-28T09:54:11.581Z,72.30
2022-09-28T09:56:45.951Z,72.40
2022-09-28T09:59:16.295Z,72.60
2022-09-28T10:01:44.358Z,72.50
2022-09-28T10:04:17.042Z,72.40
2022-09-28T10:06:45.100Z,72.50
2022-09-28T10:09:15.948Z,72.50
2022-09-28T10:11:44.486Z,72.40
2022-09-28T10:14:14.425Z,72.40
2022-09-28T10:16:43.069Z,72.50
2022-09-28T10:19:11.647Z,72.50
2022-09-28T10:21:41.716Z,72.50
2022-09-28T10:24:13.144Z,72.60
2022-09-28T10:26:41.807Z,72.60
2022-09-28T10:29:14.706Z,72.50
2022-09-28T10:31:43.372Z,72.60
2022-09-28T10:34:14.208Z,72.60
2022-09-28T10:36:52.226Z,72.60
2022-09-28T10:39:29.962Z,72.50
2022-09-28T10:41:59.819Z,72.40
2022-09-28T10:44:27.827Z,72.50
2022-09-28T10:47:00.009Z,72.60
2022-09-28T10:49:28.616Z,72.50
2022-09-28T10:52:03.503Z,72.40
2022-09-28T10:54:32.267Z,72.40
2022-09-28T10:57:00.396Z,72.50
2022-09-28T10:59:39.666Z,72.50
2022-09-28T11:02:18.308Z,72.40
2022-09-28T11:04:51.750Z,72.50
2022-09-28T11:07:21.995Z,72.50
2022-09-28T11:09:50.276Z,72.50
2022-09-28T11:12:19.764Z,72.50
2022-09-28T11:14:52.649Z,72.60
2022-09-28T11:17:27.336Z,72.50
2022-09-28T11:19:55.426Z,72.40
2022-09-28T11:22:28.919Z,72.50
2022-09-28T11:25:23.725Z,72.50
2022-09-28T11:27:59.350Z,72.60
2022-09-28T11:30:28.917Z,72.60
2022-09-28T11:32:58.342Z,72.50
2022-09-28T11:35:29.398Z,72.70
2022-09-28T11:38:17.851Z,72.60
2022-09-28T11:40:50.368Z,72.50
2022-09-28T11:43:22.272Z,72.70
2022-09-28T11:45:53.058Z,72.60
2022-09-28T11:48:23.988Z,72.60
2022-09-28T11:50:53.195Z,72.70
2022-09-28T11:53:25.132Z,72.70
2022-09-28T11:55:56.278Z,72.70
2022-09-28T11:58:27.540Z,72.80
2022-09-28T12:00:58.024Z,72.70
2022-09-28T12:03:28.249Z,72.70
2022-09-28T12:05:58.112Z,72.80
2022-09-28T12:08:28.807Z,72.80
2022-09-28T12:10:59.251Z,72.70
2022-09-28T12:13:35.488Z,72.80
2022-09-28T12:16:27.572Z,72.60
2022-09-28T12:18:54.734Z,72.70
2022-09-28T12:21:34.537Z,72.70
2022-09-28T12:24:07.796Z,72.70
2022-09-28T12:26:40.020Z,72.80
2022-09-28T12:29:11.715Z,72.70
2022-09-28T12:31:56.320Z,72.80
2022-09-28T12:34:24.366Z,72.80
2022-09-28T12:37:01.009Z,72.90
2022-09-28T12:39:57.078Z,72.80
2022-09-28T12:42:34.475Z,72.90
2022-09-28T12:45:18.860Z,72.90
2022-09-28T12:47:57.948Z,72.90
2022-09-28T12:50:38.497Z,73.00
2022-09-28T12:53:46.704Z,73.00
2022-09-28T12:56:21.555Z,73.00
2022-09-28T12:59:00.099Z,73.00
2022-09-28T13:01:43.501Z,73.10
2022-09-28T13:04:31.253Z,73.00
2022-09-28T13:07:03.739Z,72.90
2022-09-28T13:09:33.978Z,73.10
2022-09-28T13:12:11.585Z,73.10
2022-09-28T13:15:06.066Z,73.20
2022-09-28T13:17:40.813Z,73.20
2022-09-28T13:20:18.909Z,73.20
2022-09-28T13:22:49.795Z,73.20
2022-09-28T13:25:19.000Z,73.20
2022-09-28T13:27:51.735Z,73.30
2022-09-28T13:30:19.943Z,73.30
2022-09-28T13:32:47.947Z,73.30
2022-09-28T13:35:16.098Z,73.30
2022-09-28T13:37:44.092Z,73.30
2022-09-28T13:40:12.171Z,73.20
2022-09-28T13:43:02.636Z,73.20
2022-09-28T13:45:53.810Z,73.40
2022-09-28T13:48:22.851Z,73.40
2022-09-28T13:51:14.166Z,73.40
2022-09-28T13:53:49.439Z,73.40
2022-09-28T13:56:28.290Z,73.30
2022-09-28T13:58:59.323Z,73.30
2022-09-28T14:01:29.133Z,73.30
2022-09-28T14:04:14.389Z,73.30
2022-09-28T14:06:49.440Z,73.50
2022-09-28T14:09:40.955Z,73.30
2022-09-28T14:12:46.303Z,73.30
2022-09-28T14:19:07.088Z,73.40
2022-09-28T14:22:09.226Z,73.40
2022-09-28T14:24:51.987Z,73.40
2022-09-28T14:27:30.001Z,73.60
2022-09-28T14:30:07.978Z,73.60
2022-09-28T14:32:37.513Z,73.60
2022-09-28T14:35:07.579Z,73.60
2022-09-28T14:37:55.392Z,73.60
2022-09-28T14:40:48.695Z,73.60
2022-09-28T14:43:36.072Z,73.60
2022-09-28T14:46:28.448Z,73.60
2022-09-28T14:48:57.187Z,73.60
2022-09-28T14:52:07.485Z,73.70
2022-09-28T14:54:57.525Z,73.70
2022-09-28T14:57:26.587Z,73.70
2022-09-28T14:59:54.605Z,73.70
2022-09-28T15:02:26.554Z,73.80
2022-09-28T15:04:56.390Z,73.80
2022-09-28T15:07:27.137Z,73.80
2022-09-28T15:09:57.146Z,73.70
2022-09-28T15:12:27.037Z,73.70
2022-09-28T15:14:56.395Z,73.80
2022-09-28T15:17:25.839Z,73.80
2022-09-28T15:20:21.815Z,73.80
2022-09-28T15:22:50.854Z,73.80
2022-09-28T15:25:21.062Z,73.80
2022-09-28T15:27:54.149Z,73.70
2022-09-28T15:30:27.529Z,73.70
2022-09-28T15:32:56.959Z,73.80
2022-09-28T15:35:24.998Z,73.70
2022-09-28T15:37:56.272Z,73.70
2022-09-28T15:40:30.112Z,73.70
2022-09-28T15:42:59.443Z,73.80
2022-09-28T15:45:28.726Z,73.80
2022-09-28T15:47:58.611Z,73.70
2022-09-28T15:50:28.130Z,73.70
2022-09-28T15:52:57.515Z,73.80
2022-09-28T15:55:29.167Z,73.80
2022-09-28T15:58:07.931Z,73.80
2022-09-28T16:00:35.983Z,73.80
2022-09-28T16:03:18.793Z,73.90
2022-09-28T16:05:47.858Z,73.90
2022-09-28T16:08:21.411Z,73.90
2022-09-28T16:11:09.140Z,73.90
2022-09-28T16:13:37.165Z,74.00
2022-09-28T16:16:05.306Z,73.90
2022-09-28T16:18:35.688Z,73.90
2022-09-28T16:21:37.586Z,73.90
2022-09-28T16:24:05.758Z,74.00
2022-09-28T16:26:36.058Z,74.00
2022-09-28T16:29:07.945Z,74.00
2022-09-28T16:31:37.213Z,74.00
2022-09-28T16:34:19.807Z,74.00
2022-09-28T16:36:48.948Z,74.00
2022-09-28T16:41:48.098Z,74.00
2022-09-28T16:46:45.665Z,74.00
2022-09-28T16:49:18.710Z,74.00
2022-09-28T16:51:47.546Z,74.10
2022-09-28T16:54:38.772Z,74.10
2022-09-28T16:57:09.237Z,74.00
2022-09-28T16:59:38.894Z,74.00
2022-09-28T17:02:45.204Z,73.90
2022-09-28T17:05:09.012Z,74.00
2022-09-28T17:07:37.025Z,74.00
2022-09-28T17:10:10.807Z,74.00
2022-09-28T17:12:40.312Z,74.00
2022-09-28T17:15:09.133Z,74.10
2022-09-28T17:17:39.207Z,74.00
2022-09-28T17:20:15.772Z,74.00
2022-09-28T17:22:43.819Z,74.00
2022-09-28T17:25:12.829Z,74.00
2022-09-28T17:27:44.094Z,74.00
2022-09-28T17:30:13.340Z,74.00
2022-09-28T17:32:44.912Z,74.00
2022-09-28T17:35:24.123Z,74.00
2022-09-28T17:37:56.636Z,74.00
2022-09-28T17:40:25.855Z,73.90
2022-09-28T17:42:56.478Z,74.00
2022-09-28T17:45:28.212Z,74.00
2022-09-28T17:47:56.542Z,74.00
2022-09-28T17:50:25.571Z,74.00
2022-09-28T17:52:57.769Z,74.10
2022-09-28T17:55:28.580Z,74.00
2022-09-28T17:57:58.153Z,74.00
2022-09-28T18:00:27.539Z,73.90
2022-09-28T18:02:56.457Z,74.00
2022-09-28T18:05:25.177Z,74.00
2022-09-28T18:07:53.252Z,73.90
2022-09-28T18:10:22.830Z,74.00
2022-09-28T18:12:50.962Z,74.00
2022-09-28T18:15:20.582Z,74.00
2022-09-28T18:17:48.654Z,73.90
2022-09-28T18:20:16.710Z,73.90
2022-09-28T18:22:44.759Z,73.90
2022-09-28T18:25:12.848Z,73.90
2022-09-28T18:27:40.901Z,73.90
2022-09-28T18:30:09.655Z,73.90
2022-09-28T18:32:39.083Z,73.90
2022-09-28T18:35:08.655Z,73.90
2022-09-28T18:37:37.414Z,73.90
2022-09-28T18:40:06.070Z,73.90
2022-09-28T18:42:34.850Z,73.90
2022-09-28T18:45:02.912Z,73.90
2022-09-28T18:47:30.994Z,73.90
2022-09-28T18:52:28.813Z,73.80
2022-09-28T18:54:56.823Z,73.90
2022-09-28T18:57:24.884Z,73.80
2022-09-28T18:59:52.909Z,73.80
2022-09-28T19:02:21.072Z,73.80
2022-09-28T19:04:49.236Z,73.80
2022-09-28T19:07:18.635Z,73.70
2022-09-28T19:09:46.703Z,73.80
2022-09-28T19:12:14.884Z,73.80
2022-09-28T19:14:43.100Z,73.80
2022-09-28T19:17:11.951Z,73.70
2022-09-28T19:19:42.750Z,73.70
2022-09-28T19:22:10.845Z,73.70
2022-09-28T19:24:40.508Z,73.70
2022-09-28T19:27:08.577Z,73.70
2022-09-28T19:29:36.633Z,73.70
2022-09-28T19:32:04.680Z,73.70
2022-09-28T19:34:32.752Z,73.70
2022-09-28T19:37:03.851Z,73.70
2022-09-28T19:39:31.964Z,73.70
2022-09-28T19:42:03.823Z,73.70
2022-09-28T19:44:32.377Z,73.70
2022-09-28T19:47:04.160Z,73.60
2022-09-28T19:49:36.809Z,73.60
2022-09-28T19:52:20.768Z,73.60
2022-09-28T19:54:55.768Z,73.60
2022-09-28T19:57:25.970Z,73.60
2022-09-28T19:59:57.849Z,73.60
2022-09-28T20:02:29.159Z,73.60
2022-09-28T20:04:57.314Z,73.60
2022-09-28T20:07:25.344Z,73.60
2022-09-28T20:09:53.380Z,73.60
2022-09-28T20:12:22.306Z,73.60
2022-09-28T20:14:51.736Z,73.50
2022-09-28T20:17:21.738Z,73.60
2022-09-28T20:19:51.694Z,73.50
2022-09-28T20:22:20.091Z,73.50
2022-09-28T20:24:48.175Z,73.50
2022-09-28T20:27:16.241Z,73.50
2022-09-28T20:29:44.297Z,73.50
2022-09-28T20:32:14.241Z,73.50
2022-09-28T20:34:42.288Z,73.50
2022-09-28T20:37:12.479Z,73.40
2022-09-28T20:39:45.176Z,73.40
2022-09-28T20:42:15.118Z,73.40
2022-09-28T20:44:43.208Z,73.40
2022-09-28T20:47:11.258Z,73.40
2022-09-28T20:49:40.703Z,73.40
2022-09-28T20:52:08.758Z,73.40
2022-09-28T20:54:38.856Z,73.40
2022-09-28T20:57:17.277Z,73.30
2022-09-28T20:59:54.574Z,73.30
2022-09-28T21:02:23.537Z,73.30
2022-09-28T21:04:53.014Z,73.30
2022-09-28T21:07:22.199Z,73.30
2022-09-28T21:09:50.538Z,73.30
2022-09-28T21:12:19.172Z,73.20
2022-09-28T21:14:51.181Z,73.20
2022-09-28T21:17:19.250Z,73.30
2022-09-28T21:19:47.312Z,73.20
2022-09-28T21:22:16.761Z,73.20
2022-09-28T21:24:50.485Z,73.20
2022-09-28T21:27:20.497Z,73.20
2022-09-28T21:29:48.545Z,73.10
2022-09-28T21:32:17.059Z,73.10
2022-09-28T21:34:45.114Z,73.10
2022-09-28T21:37:13.247Z,73.10
2022-09-28T21:39:42.757Z,73.00
2022-09-28T21:42:10.812Z,73.00
2022-09-28T21:44:38.883Z,73.10
2022-09-28T21:47:06.923Z,73.00
2022-09-28T21:49:38.510Z,73.00
2022-09-28T21:52:06.593Z,73.00
2022-09-28T21:54:37.263Z,72.90
2022-09-28T21:57:06.954Z,72.90
2022-09-28T21:59:38.527Z,73.00
2022-09-28T22:02:07.331Z,73.00
2022-09-28T22:04:35.376Z,72.90
2022-09-28T22:07:03.432Z,72.90
2022-09-28T22:09:31.484Z,72.90
2022-09-28T22:11:59.597Z,72.80
2022-09-28T22:14:29.023Z,72.80
2022-09-28T22:16:57.092Z,72.80
2022-09-28T22:19:25.153Z,72.80
2022-09-28T22:21:56.560Z,72.70
2022-09-28T22:24:24.809Z,72.80
2022-09-28T22:26:52.856Z,72.80
2022-09-28T22:29:21.642Z,72.80
2022-09-28T22:31:51.098Z,72.80
2022-09-28T22:34:19.260Z,72.70
2022-09-28T22:36:47.435Z,72.70
2022-09-28T22:39:15.758Z,72.70
2022-09-28T22:41:43.891Z,72.70
2022-09-28T22:44:11.973Z,72.70
2022-09-28T22:46:40.118Z,72.70
2022-09-28T22:49:11.745Z,72.60
2022-09-28T22:51:39.844Z,72.70
2022-09-28T22:54:07.971Z,72.60
2022-09-28T22:56:36.014Z,72.60
2022-09-28T22:59:04.223Z,72.70
2022-09-28T23:01:32.339Z,72.70
2022-09-28T23:04:00.915Z,72.60
2022-09-28T23:06:30.929Z,72.60
2022-09-28T23:08:59.005Z,72.50
2022-09-28T23:11:27.168Z,72.60
2022-09-28T23:13:55.952Z,72.60
2022-09-28T23:16:25.660Z,72.50
2022-09-28T23:18:56.818Z,72.60
2022-09-28T23:21:27.724Z,72.50
2022-09-28T23:23:58.001Z,72.50
2022-09-28T23:26:26.692Z,72.40
2022-09-28T23:28:55.435Z,72.50
2022-09-28T23:31:24.704Z,72.40
2022-09-28T23:33:52.895Z,72.40
2022-09-28T23:36:20.958Z,72.40
2022-09-28T23:38:49.010Z,72.30
2022-09-28T23:41:19.067Z,72.30
2022-09-28T23:43:47.110Z,72.30
2022-09-28T23:46:20.349Z,72.40
2022-09-28T23:48:48.915Z,72.20
2022-09-28T23:51:16.974Z,72.30
2022-09-28T23:53:45.047Z,72.20
2022-09-28T23:56:14.394Z,72.20
2022-09-28T23:58:43.845Z,72.30
